sensor_id;sensor_type;location;lat;lon;timestamp;P1;durP1;ratioP1;P2;durP2;ratioP2
64188;SDS011;50493;50.970;10.082;2023-02-18T00:00:35;11.88;;;6.63;;
64188;SDS011;50493;50.970;10.082;2023-02-18T00:03:02;10.18;;;6.30;;
64188;SDS011;50493;50.970;10.082;2023-02-18T00:05:27;10.70;;;5.70;;
64188;SDS011;50493;50.970;10.082;2023-02-18T00:07:53;11.93;;;7.10;;
64188;SDS011;50493;50.970;10.082;2023-02-18T00:10:18;12.48;;;6.03;;
64188;SDS011;50493;50.970;10.082;2023-02-18T00:12:44;12.88;;;6.93;;
64188;SDS011;50493;50.970;10.082;2023-02-18T00:15:09;11.30;;;6.80;;
64188;SDS011;50493;50.970;10.082;2023-02-18T00:17:35;12.38;;;7.50;;
64188;SDS011;50493;50.970;10.082;2023-02-18T00:20:03;11.73;;;5.47;;
64188;SDS011;50493;50.970;10.082;2023-02-18T00:22:29;11.85;;;6.85;;
64188;SDS011;50493;50.970;10.082;2023-02-18T00:24:55;11.98;;;7.13;;
64188;SDS011;50493;50.970;10.082;2023-02-18T00:27:20;8.90;;;5.32;;
64188;SDS011;50493;50.970;10.082;2023-02-18T00:29:46;11.82;;;7.30;;
64188;SDS011;50493;50.970;10.082;2023-02-18T00:32:11;13.40;;;7.03;;
64188;SDS011;50493;50.970;10.082;2023-02-18T00:34:36;11.18;;;6.30;;
64188;SDS011;50493;50.970;10.082;2023-02-18T00:37:03;12.50;;;6.75;;
64188;SDS011;50493;50.970;10.082;2023-02-18T00:39:29;14.02;;;7.18;;
64188;SDS011;50493;50.970;10.082;2023-02-18T00:41:54;12.75;;;7.35;;
64188;SDS011;50493;50.970;10.082;2023-02-18T00:44:20;13.90;;;7.40;;
64188;SDS011;50493;50.970;10.082;2023-02-18T00:46:45;13.02;;;8.13;;
64188;SDS011;50493;50.970;10.082;2023-02-18T00:49:12;12.65;;;6.97;;
64188;SDS011;50493;50.970;10.082;2023-02-18T00:51:38;12.80;;;7.35;;
64188;SDS011;50493;50.970;10.082;2023-02-18T00:54:04;14.10;;;7.85;;
64188;SDS011;50493;50.970;10.082;2023-02-18T00:56:30;12.73;;;7.57;;
64188;SDS011;50493;50.970;10.082;2023-02-18T00:58:55;12.20;;;7.18;;
64188;SDS011;50493;50.970;10.082;2023-02-18T01:01:21;12.13;;;7.22;;
64188;SDS011;50493;50.970;10.082;2023-02-18T01:03:46;13.27;;;7.88;;
64188;SDS011;50493;50.970;10.082;2023-02-18T01:06:12;13.50;;;7.57;;
64188;SDS011;50493;50.970;10.082;2023-02-18T01:08:38;13.38;;;7.95;;
64188;SDS011;50493;50.970;10.082;2023-02-18T01:11:06;12.88;;;7.55;;
64188;SDS011;50493;50.970;10.082;2023-02-18T01:13:33;12.10;;;7.18;;
64188;SDS011;50493;50.970;10.082;2023-02-18T01:16:00;12.80;;;7.28;;
64188;SDS011;50493;50.970;10.082;2023-02-18T01:18:25;13.73;;;7.35;;
64188;SDS011;50493;50.970;10.082;2023-02-18T01:20:51;11.73;;;6.80;;
64188;SDS011;50493;50.970;10.082;2023-02-18T01:23:17;12.80;;;7.53;;
64188;SDS011;50493;50.970;10.082;2023-02-18T01:25:42;11.50;;;6.78;;
64188;SDS011;50493;50.970;10.082;2023-02-18T01:28:10;12.32;;;6.85;;
64188;SDS011;50493;50.970;10.082;2023-02-18T01:30:37;13.68;;;7.50;;
64188;SDS011;50493;50.970;10.082;2023-02-18T01:33:02;11.98;;;6.07;;
64188;SDS011;50493;50.970;10.082;2023-02-18T01:35:28;14.57;;;7.75;;
64188;SDS011;50493;50.970;10.082;2023-02-18T01:37:53;13.65;;;7.35;;
64188;SDS011;50493;50.970;10.082;2023-02-18T01:40:20;12.57;;;6.68;;
64188;SDS011;50493;50.970;10.082;2023-02-18T01:42:47;13.18;;;7.03;;
64188;SDS011;50493;50.970;10.082;2023-02-18T01:48:11;10.30;;;6.00;;
64188;SDS011;50493;50.970;10.082;2023-02-18T01:53:08;12.00;;;7.00;;
64188;SDS011;50493;50.970;10.082;2023-02-18T01:55:34;11.07;;;5.93;;
64188;SDS011;50493;50.970;10.082;2023-02-18T01:58:00;10.25;;;6.00;;
64188;SDS011;50493;50.970;10.082;2023-02-18T02:00:26;9.65;;;5.38;;
64188;SDS011;50493;50.970;10.082;2023-02-18T02:02:53;10.75;;;5.35;;
64188;SDS011;50493;50.970;10.082;2023-02-18T02:05:20;11.38;;;6.50;;
64188;SDS011;50493;50.970;10.082;2023-02-18T02:07:46;10.48;;;5.93;;
64188;SDS011;50493;50.970;10.082;2023-02-18T02:10:15;11.35;;;6.53;;
64188;SDS011;50493;50.970;10.082;2023-02-18T02:12:43;10.20;;;5.78;;
64188;SDS011;50493;50.970;10.082;2023-02-18T02:15:23;10.30;;;6.05;;
64188;SDS011;50493;50.970;10.082;2023-02-18T02:18:01;10.30;;;5.50;;
64188;SDS011;50493;50.970;10.082;2023-02-18T02:20:41;9.77;;;5.68;;
64188;SDS011;50493;50.970;10.082;2023-02-18T02:23:28;11.32;;;5.65;;
64188;SDS011;50493;50.970;10.082;2023-02-18T02:26:26;11.20;;;5.80;;
64188;SDS011;50493;50.970;10.082;2023-02-18T02:29:27;7.80;;;4.85;;
64188;SDS011;50493;50.970;10.082;2023-02-18T02:32:18;10.40;;;5.93;;
64188;SDS011;50493;50.970;10.082;2023-02-18T02:34:58;11.85;;;6.53;;
64188;SDS011;50493;50.970;10.082;2023-02-18T02:37:28;10.45;;;5.70;;
64188;SDS011;50493;50.970;10.082;2023-02-18T02:40:05;12.32;;;6.68;;
64188;SDS011;50493;50.970;10.082;2023-02-18T02:42:43;10.80;;;6.03;;
64188;SDS011;50493;50.970;10.082;2023-02-18T02:45:16;10.02;;;5.50;;
64188;SDS011;50493;50.970;10.082;2023-02-18T02:47:48;10.60;;;5.97;;
64188;SDS011;50493;50.970;10.082;2023-02-18T02:50:22;9.23;;;5.18;;
64188;SDS011;50493;50.970;10.082;2023-02-18T02:52:53;9.10;;;4.10;;
64188;SDS011;50493;50.970;10.082;2023-02-18T02:55:23;10.45;;;5.82;;
64188;SDS011;50493;50.970;10.082;2023-02-18T02:57:50;10.52;;;5.97;;
64188;SDS011;50493;50.970;10.082;2023-02-18T03:00:18;9.02;;;5.03;;
64188;SDS011;50493;50.970;10.082;2023-02-18T03:06:04;8.30;;;4.40;;
64188;SDS011;50493;50.970;10.082;2023-02-18T03:08:46;7.97;;;3.97;;
64188;SDS011;50493;50.970;10.082;2023-02-18T03:11:21;8.02;;;4.50;;
64188;SDS011;50493;50.970;10.082;2023-02-18T03:13:50;9.95;;;5.35;;
64188;SDS011;50493;50.970;10.082;2023-02-18T03:16:25;8.93;;;5.10;;
64188;SDS011;50493;50.970;10.082;2023-02-18T03:18:58;8.63;;;5.00;;
64188;SDS011;50493;50.970;10.082;2023-02-18T03:21:28;9.90;;;6.03;;
64188;SDS011;50493;50.970;10.082;2023-02-18T03:23:58;8.90;;;5.05;;
64188;SDS011;50493;50.970;10.082;2023-02-18T03:28:54;7.55;;;3.65;;
64188;SDS011;50493;50.970;10.082;2023-02-18T03:31:24;8.75;;;4.80;;
64188;SDS011;50493;50.970;10.082;2023-02-18T03:33:53;9.05;;;5.10;;
64188;SDS011;50493;50.970;10.082;2023-02-18T03:36:22;8.00;;;4.65;;
64188;SDS011;50493;50.970;10.082;2023-02-18T03:38:53;8.20;;;4.53;;
64188;SDS011;50493;50.970;10.082;2023-02-18T03:41:23;9.40;;;5.32;;
64188;SDS011;50493;50.970;10.082;2023-02-18T03:43:48;8.50;;;4.43;;
64188;SDS011;50493;50.970;10.082;2023-02-18T03:46:14;9.55;;;5.40;;
64188;SDS011;50493;50.970;10.082;2023-02-18T03:48:39;8.55;;;5.20;;
64188;SDS011;50493;50.970;10.082;2023-02-18T03:51:04;7.90;;;4.57;;
64188;SDS011;50493;50.970;10.082;2023-02-18T03:53:30;6.93;;;3.70;;
64188;SDS011;50493;50.970;10.082;2023-02-18T03:55:56;7.70;;;4.35;;
64188;SDS011;50493;50.970;10.082;2023-02-18T03:58:22;7.97;;;4.43;;
64188;SDS011;50493;50.970;10.082;2023-02-18T04:00:47;11.27;;;5.53;;
64188;SDS011;50493;50.970;10.082;2023-02-18T04:03:12;9.63;;;5.10;;
64188;SDS011;50493;50.970;10.082;2023-02-18T04:05:38;7.82;;;4.38;;
64188;SDS011;50493;50.970;10.082;2023-02-18T04:08:03;8.55;;;4.75;;
64188;SDS011;50493;50.970;10.082;2023-02-18T04:10:29;7.45;;;3.95;;
64188;SDS011;50493;50.970;10.082;2023-02-18T04:12:56;9.90;;;5.60;;
64188;SDS011;50493;50.970;10.082;2023-02-18T04:15:21;8.05;;;4.45;;
64188;SDS011;50493;50.970;10.082;2023-02-18T04:17:47;8.10;;;4.85;;
64188;SDS011;50493;50.970;10.082;2023-02-18T04:20:12;5.22;;;2.65;;
64188;SDS011;50493;50.970;10.082;2023-02-18T04:22:37;6.80;;;4.00;;
64188;SDS011;50493;50.970;10.082;2023-02-18T04:25:03;6.88;;;3.00;;
64188;SDS011;50493;50.970;10.082;2023-02-18T04:27:29;6.60;;;3.90;;
64188;SDS011;50493;50.970;10.082;2023-02-18T04:29:55;5.55;;;2.92;;
64188;SDS011;50493;50.970;10.082;2023-02-18T04:32:21;5.53;;;2.50;;
64188;SDS011;50493;50.970;10.082;2023-02-18T04:34:46;5.63;;;3.00;;
64188;SDS011;50493;50.970;10.082;2023-02-18T04:37:11;4.68;;;2.42;;
64188;SDS011;50493;50.970;10.082;2023-02-18T04:39:37;4.85;;;2.45;;
64188;SDS011;50493;50.970;10.082;2023-02-18T04:42:02;5.82;;;3.20;;
64188;SDS011;50493;50.970;10.082;2023-02-18T04:44:32;8.63;;;4.05;;
64188;SDS011;50493;50.970;10.082;2023-02-18T04:46:59;5.15;;;2.80;;
64188;SDS011;50493;50.970;10.082;2023-02-18T04:49:24;6.70;;;2.95;;
64188;SDS011;50493;50.970;10.082;2023-02-18T04:51:50;5.35;;;2.60;;
64188;SDS011;50493;50.970;10.082;2023-02-18T04:54:15;8.13;;;4.53;;
64188;SDS011;50493;50.970;10.082;2023-02-18T04:56:40;6.88;;;3.58;;
64188;SDS011;50493;50.970;10.082;2023-02-18T04:59:05;5.57;;;3.15;;
64188;SDS011;50493;50.970;10.082;2023-02-18T05:01:31;4.25;;;2.72;;
64188;SDS011;50493;50.970;10.082;2023-02-18T05:03:57;3.85;;;2.13;;
64188;SDS011;50493;50.970;10.082;2023-02-18T05:06:23;4.07;;;2.50;;
64188;SDS011;50493;50.970;10.082;2023-02-18T05:08:48;4.95;;;3.13;;
64188;SDS011;50493;50.970;10.082;2023-02-18T05:11:13;4.15;;;2.63;;
64188;SDS011;50493;50.970;10.082;2023-02-18T05:13:39;3.42;;;1.55;;
64188;SDS011;50493;50.970;10.082;2023-02-18T05:16:04;4.45;;;2.58;;
64188;SDS011;50493;50.970;10.082;2023-02-18T05:18:30;7.65;;;3.50;;
64188;SDS011;50493;50.970;10.082;2023-02-18T05:20:56;6.00;;;3.10;;
64188;SDS011;50493;50.970;10.082;2023-02-18T05:23:22;5.10;;;2.92;;
64188;SDS011;50493;50.970;10.082;2023-02-18T05:25:48;2.75;;;1.50;;
64188;SDS011;50493;50.970;10.082;2023-02-18T05:28:13;3.53;;;2.05;;
64188;SDS011;50493;50.970;10.082;2023-02-18T05:30:39;4.95;;;2.72;;
64188;SDS011;50493;50.970;10.082;2023-02-18T05:33:04;3.67;;;1.73;;
64188;SDS011;50493;50.970;10.082;2023-02-18T05:35:29;5.18;;;2.97;;
64188;SDS011;50493;50.970;10.082;2023-02-18T05:37:56;2.10;;;1.27;;
64188;SDS011;50493;50.970;10.082;2023-02-18T05:40:21;3.40;;;2.08;;
64188;SDS011;50493;50.970;10.082;2023-02-18T05:42:47;4.63;;;2.45;;
64188;SDS011;50493;50.970;10.082;2023-02-18T05:45:12;1.85;;;1.20;;
64188;SDS011;50493;50.970;10.082;2023-02-18T05:47:37;2.83;;;1.30;;
64188;SDS011;50493;50.970;10.082;2023-02-18T05:50:03;1.00;;;0.65;;
64188;SDS011;50493;50.970;10.082;2023-02-18T05:52:29;4.47;;;2.38;;
64188;SDS011;50493;50.970;10.082;2023-02-18T05:54:56;2.55;;;0.90;;
64188;SDS011;50493;50.970;10.082;2023-02-18T05:57:21;3.28;;;1.65;;
64188;SDS011;50493;50.970;10.082;2023-02-18T05:59:46;0.75;;;0.50;;
64188;SDS011;50493;50.970;10.082;2023-02-18T06:02:12;1.10;;;0.70;;
64188;SDS011;50493;50.970;10.082;2023-02-18T06:04:37;1.40;;;0.63;;
64188;SDS011;50493;50.970;10.082;2023-02-18T06:07:04;0.45;;;0.43;;
64188;SDS011;50493;50.970;10.082;2023-02-18T06:09:29;2.75;;;0.90;;
64188;SDS011;50493;50.970;10.082;2023-02-18T06:11:56;2.25;;;1.05;;
64188;SDS011;50493;50.970;10.082;2023-02-18T06:14:22;0.98;;;0.60;;
64188;SDS011;50493;50.970;10.082;2023-02-18T06:16:47;0.73;;;0.55;;
64188;SDS011;50493;50.970;10.082;2023-02-18T06:19:12;1.40;;;0.93;;
64188;SDS011;50493;50.970;10.082;2023-02-18T06:21:38;3.97;;;2.15;;
64188;SDS011;50493;50.970;10.082;2023-02-18T06:24:03;0.40;;;0.40;;
64188;SDS011;50493;50.970;10.082;2023-02-18T06:26:29;1.40;;;0.60;;
64188;SDS011;50493;50.970;10.082;2023-02-18T06:28:56;1.80;;;1.00;;
64188;SDS011;50493;50.970;10.082;2023-02-18T06:31:21;2.00;;;0.95;;
64188;SDS011;50493;50.970;10.082;2023-02-18T06:33:46;0.93;;;0.60;;
64188;SDS011;50493;50.970;10.082;2023-02-18T06:36:12;2.38;;;1.30;;
64188;SDS011;50493;50.970;10.082;2023-02-18T06:38:38;1.48;;;0.80;;
64188;SDS011;50493;50.970;10.082;2023-02-18T06:41:05;0.70;;;0.50;;
64188;SDS011;50493;50.970;10.082;2023-02-18T06:43:30;2.00;;;0.50;;
64188;SDS011;50493;50.970;10.082;2023-02-18T06:45:57;3.05;;;1.17;;
64188;SDS011;50493;50.970;10.082;2023-02-18T06:48:22;1.88;;;1.08;;
64188;SDS011;50493;50.970;10.082;2023-02-18T06:50:48;2.88;;;1.20;;
64188;SDS011;50493;50.970;10.082;2023-02-18T06:53:13;0.98;;;0.50;;
64188;SDS011;50493;50.970;10.082;2023-02-18T06:55:41;1.70;;;0.95;;
64188;SDS011;50493;50.970;10.082;2023-02-18T06:58:06;2.05;;;0.88;;
64188;SDS011;50493;50.970;10.082;2023-02-18T07:00:31;1.02;;;0.63;;
64188;SDS011;50493;50.970;10.082;2023-02-18T07:02:58;1.17;;;0.50;;
64188;SDS011;50493;50.970;10.082;2023-02-18T07:05:23;3.00;;;0.77;;
64188;SDS011;50493;50.970;10.082;2023-02-18T07:07:49;1.25;;;0.70;;
64188;SDS011;50493;50.970;10.082;2023-02-18T07:10:14;1.63;;;0.77;;
64188;SDS011;50493;50.970;10.082;2023-02-18T07:12:39;1.98;;;1.10;;
64188;SDS011;50493;50.970;10.082;2023-02-18T07:15:05;2.65;;;1.20;;
64188;SDS011;50493;50.970;10.082;2023-02-18T07:17:30;1.88;;;0.55;;
64188;SDS011;50493;50.970;10.082;2023-02-18T07:19:58;1.25;;;0.90;;
64188;SDS011;50493;50.970;10.082;2023-02-18T07:22:25;0.93;;;0.47;;
64188;SDS011;50493;50.970;10.082;2023-02-18T07:24:50;0.75;;;0.57;;
64188;SDS011;50493;50.970;10.082;2023-02-18T07:27:16;2.65;;;1.13;;
64188;SDS011;50493;50.970;10.082;2023-02-18T07:29:42;1.45;;;0.30;;
64188;SDS011;50493;50.970;10.082;2023-02-18T07:32:07;1.45;;;0.40;;
64188;SDS011;50493;50.970;10.082;2023-02-18T07:34:32;1.40;;;0.82;;
64188;SDS011;50493;50.970;10.082;2023-02-18T07:36:59;0.75;;;0.60;;
64188;SDS011;50493;50.970;10.082;2023-02-18T07:39:24;1.52;;;0.80;;
64188;SDS011;50493;50.970;10.082;2023-02-18T07:41:49;0.40;;;0.40;;
64188;SDS011;50493;50.970;10.082;2023-02-18T07:44:15;0.90;;;0.55;;
64188;SDS011;50493;50.970;10.082;2023-02-18T07:46:40;1.42;;;1.00;;
64188;SDS011;50493;50.970;10.082;2023-02-18T07:49:06;1.33;;;0.98;;
64188;SDS011;50493;50.970;10.082;2023-02-18T07:51:32;0.43;;;0.30;;
64188;SDS011;50493;50.970;10.082;2023-02-18T07:53:58;1.40;;;0.88;;
64188;SDS011;50493;50.970;10.082;2023-02-18T07:56:24;1.38;;;0.40;;
64188;SDS011;50493;50.970;10.082;2023-02-18T07:58:49;1.33;;;0.70;;
64188;SDS011;50493;50.970;10.082;2023-02-18T08:01:15;0.68;;;0.50;;
64188;SDS011;50493;50.970;10.082;2023-02-18T08:03:40;1.00;;;0.60;;
64188;SDS011;50493;50.970;10.082;2023-02-18T08:06:06;1.23;;;0.57;;
64188;SDS011;50493;50.970;10.082;2023-02-18T08:08:32;1.20;;;0.52;;
64188;SDS011;50493;50.970;10.082;2023-02-18T08:11:00;1.25;;;0.75;;
64188;SDS011;50493;50.970;10.082;2023-02-18T08:13:27;1.25;;;0.75;;
64188;SDS011;50493;50.970;10.082;2023-02-18T08:15:53;0.55;;;0.40;;
64188;SDS011;50493;50.970;10.082;2023-02-18T08:18:19;0.68;;;0.38;;
64188;SDS011;50493;50.970;10.082;2023-02-18T08:20:46;0.82;;;0.50;;
64188;SDS011;50493;50.970;10.082;2023-02-18T08:23:12;0.50;;;0.40;;
64188;SDS011;50493;50.970;10.082;2023-02-18T08:25:38;0.50;;;0.30;;
64188;SDS011;50493;50.970;10.082;2023-02-18T08:28:05;0.80;;;0.55;;
64188;SDS011;50493;50.970;10.082;2023-02-18T08:30:30;0.77;;;0.50;;
64188;SDS011;50493;50.970;10.082;2023-02-18T08:32:56;0.10;;;0.10;;
64188;SDS011;50493;50.970;10.082;2023-02-18T08:35:22;1.10;;;0.52;;
64188;SDS011;50493;50.970;10.082;2023-02-18T08:37:47;0.80;;;0.50;;
64188;SDS011;50493;50.970;10.082;2023-02-18T08:40:13;0.65;;;0.50;;
64188;SDS011;50493;50.970;10.082;2023-02-18T08:42:39;0.45;;;0.30;;
64188;SDS011;50493;50.970;10.082;2023-02-18T08:45:06;1.00;;;0.68;;
64188;SDS011;50493;50.970;10.082;2023-02-18T08:47:32;0.20;;;0.20;;
64188;SDS011;50493;50.970;10.082;2023-02-18T08:49:57;1.35;;;0.82;;
64188;SDS011;50493;50.970;10.082;2023-02-18T08:52:22;1.88;;;0.60;;
64188;SDS011;50493;50.970;10.082;2023-02-18T08:54:48;0.30;;;0.30;;
64188;SDS011;50493;50.970;10.082;2023-02-18T08:57:14;0.70;;;0.40;;
64188;SDS011;50493;50.970;10.082;2023-02-18T08:59:39;0.30;;;0.30;;
64188;SDS011;50493;50.970;10.082;2023-02-18T09:02:06;1.20;;;0.50;;
64188;SDS011;50493;50.970;10.082;2023-02-18T09:04:31;0.28;;;0.28;;
64188;SDS011;50493;50.970;10.082;2023-02-18T09:06:57;0.63;;;0.30;;
64188;SDS011;50493;50.970;10.082;2023-02-18T09:09:22;1.15;;;0.45;;
64188;SDS011;50493;50.970;10.082;2023-02-18T09:11:48;1.70;;;0.80;;
64188;SDS011;50493;50.970;10.082;2023-02-18T09:14:14;0.63;;;0.43;;
64188;SDS011;50493;50.970;10.082;2023-02-18T09:16:40;0.82;;;0.60;;
64188;SDS011;50493;50.970;10.082;2023-02-18T09:19:07;0.90;;;0.60;;
64188;SDS011;50493;50.970;10.082;2023-02-18T09:21:32;1.05;;;0.60;;
64188;SDS011;50493;50.970;10.082;2023-02-18T09:23:58;0.47;;;0.38;;
64188;SDS011;50493;50.970;10.082;2023-02-18T09:26:24;0.35;;;0.30;;
64188;SDS011;50493;50.970;10.082;2023-02-18T09:28:51;1.33;;;0.40;;
64188;SDS011;50493;50.970;10.082;2023-02-18T09:31:19;1.25;;;0.60;;
64188;SDS011;50493;50.970;10.082;2023-02-18T09:33:47;0.88;;;0.47;;
64188;SDS011;50493;50.970;10.082;2023-02-18T09:36:16;0.60;;;0.43;;
64188;SDS011;50493;50.970;10.082;2023-02-18T09:38:43;1.27;;;0.45;;
64188;SDS011;50493;50.970;10.082;2023-02-18T09:41:09;0.50;;;0.40;;
64188;SDS011;50493;50.970;10.082;2023-02-18T09:43:42;0.68;;;0.40;;
64188;SDS011;50493;50.970;10.082;2023-02-18T09:46:14;0.88;;;0.50;;
64188;SDS011;50493;50.970;10.082;2023-02-18T09:48:43;1.10;;;0.60;;
64188;SDS011;50493;50.970;10.082;2023-02-18T09:51:11;0.80;;;0.40;;
64188;SDS011;50493;50.970;10.082;2023-02-18T09:53:39;0.60;;;0.60;;
64188;SDS011;50493;50.970;10.082;2023-02-18T09:56:05;1.00;;;0.40;;
64188;SDS011;50493;50.970;10.082;2023-02-18T09:58:31;0.45;;;0.45;;
64188;SDS011;50493;50.970;10.082;2023-02-18T10:01:01;0.70;;;0.40;;
64188;SDS011;50493;50.970;10.082;2023-02-18T10:03:29;1.33;;;0.70;;
64188;SDS011;50493;50.970;10.082;2023-02-18T10:05:55;1.17;;;0.60;;
64188;SDS011;50493;50.970;10.082;2023-02-18T10:08:25;0.98;;;0.55;;
64188;SDS011;50493;50.970;10.082;2023-02-18T10:10:54;1.10;;;0.73;;
64188;SDS011;50493;50.970;10.082;2023-02-18T10:13:21;1.20;;;0.80;;
64188;SDS011;50493;50.970;10.082;2023-02-18T10:15:47;0.85;;;0.60;;
64188;SDS011;50493;50.970;10.082;2023-02-18T10:18:17;1.30;;;0.60;;
64188;SDS011;50493;50.970;10.082;2023-02-18T10:20:47;1.00;;;0.70;;
64188;SDS011;50493;50.970;10.082;2023-02-18T10:23:14;1.10;;;0.60;;
64188;SDS011;50493;50.970;10.082;2023-02-18T10:25:41;1.77;;;0.40;;
64188;SDS011;50493;50.970;10.082;2023-02-18T10:28:10;0.70;;;0.60;;
64188;SDS011;50493;50.970;10.082;2023-02-18T10:30:37;1.13;;;0.50;;
64188;SDS011;50493;50.970;10.082;2023-02-18T10:33:10;1.30;;;0.70;;
64188;SDS011;50493;50.970;10.082;2023-02-18T10:35:51;0.82;;;0.60;;
64188;SDS011;50493;50.970;10.082;2023-02-18T10:38:19;0.93;;;0.60;;
64188;SDS011;50493;50.970;10.082;2023-02-18T10:40:54;2.15;;;0.60;;
64188;SDS011;50493;50.970;10.082;2023-02-18T10:43:31;1.40;;;0.80;;
64188;SDS011;50493;50.970;10.082;2023-02-18T10:46:04;2.80;;;0.80;;
64188;SDS011;50493;50.970;10.082;2023-02-18T10:48:52;1.77;;;0.90;;
64188;SDS011;50493;50.970;10.082;2023-02-18T10:51:29;1.42;;;0.75;;
64188;SDS011;50493;50.970;10.082;2023-02-18T10:53:57;0.55;;;0.47;;
64188;SDS011;50493;50.970;10.082;2023-02-18T10:56:33;0.85;;;0.57;;
64188;SDS011;50493;50.970;10.082;2023-02-18T10:59:03;3.17;;;1.17;;
64188;SDS011;50493;50.970;10.082;2023-02-18T11:01:34;1.45;;;0.70;;
64188;SDS011;50493;50.970;10.082;2023-02-18T11:04:04;0.80;;;0.65;;
64188;SDS011;50493;50.970;10.082;2023-02-18T11:06:37;1.23;;;0.60;;
64188;SDS011;50493;50.970;10.082;2023-02-18T11:09:04;1.52;;;0.60;;
64188;SDS011;50493;50.970;10.082;2023-02-18T11:11:31;1.42;;;0.90;;
64188;SDS011;50493;50.970;10.082;2023-02-18T11:13:59;1.55;;;0.80;;
64188;SDS011;50493;50.970;10.082;2023-02-18T11:16:36;1.17;;;0.80;;
64188;SDS011;50493;50.970;10.082;2023-02-18T11:19:02;1.10;;;0.60;;
64188;SDS011;50493;50.970;10.082;2023-02-18T11:21:29;1.35;;;0.80;;
64188;SDS011;50493;50.970;10.082;2023-02-18T11:23:55;1.00;;;0.70;;
64188;SDS011;50493;50.970;10.082;2023-02-18T11:26:23;1.13;;;0.70;;
64188;SDS011;50493;50.970;10.082;2023-02-18T11:28:55;1.30;;;0.77;;
64188;SDS011;50493;50.970;10.082;2023-02-18T11:31:25;1.48;;;0.80;;
64188;SDS011;50493;50.970;10.082;2023-02-18T11:36:23;1.25;;;0.60;;
64188;SDS011;50493;50.970;10.082;2023-02-18T11:38:53;2.28;;;0.90;;
64188;SDS011;50493;50.970;10.082;2023-02-18T11:41:20;2.20;;;0.63;;
64188;SDS011;50493;50.970;10.082;2023-02-18T11:43:52;1.50;;;0.82;;
64188;SDS011;50493;50.970;10.082;2023-02-18T11:46:19;1.15;;;0.70;;
64188;SDS011;50493;50.970;10.082;2023-02-18T11:48:46;1.00;;;0.70;;
64188;SDS011;50493;50.970;10.082;2023-02-18T11:51:15;1.77;;;0.80;;
64188;SDS011;50493;50.970;10.082;2023-02-18T11:53:53;2.75;;;0.90;;
64188;SDS011;50493;50.970;10.082;2023-02-18T11:56:23;1.58;;;0.90;;
64188;SDS011;50493;50.970;10.082;2023-02-18T11:58:49;1.85;;;0.90;;
64188;SDS011;50493;50.970;10.082;2023-02-18T12:01:18;1.35;;;1.10;;
64188;SDS011;50493;50.970;10.082;2023-02-18T12:03:52;1.98;;;0.80;;
64188;SDS011;50493;50.970;10.082;2023-02-18T12:06:25;1.30;;;0.90;;
64188;SDS011;50493;50.970;10.082;2023-02-18T12:08:57;2.42;;;1.00;;
64188;SDS011;50493;50.970;10.082;2023-02-18T12:11:28;1.85;;;0.90;;
64188;SDS011;50493;50.970;10.082;2023-02-18T12:13:57;1.30;;;0.73;;
64188;SDS011;50493;50.970;10.082;2023-02-18T12:16:25;2.75;;;0.95;;
64188;SDS011;50493;50.970;10.082;2023-02-18T12:19:06;1.65;;;0.90;;
64188;SDS011;50493;50.970;10.082;2023-02-18T12:21:51;1.40;;;0.82;;
64188;SDS011;50493;50.970;10.082;2023-02-18T12:24:28;1.80;;;1.10;;
64188;SDS011;50493;50.970;10.082;2023-02-18T12:27:07;2.55;;;1.00;;
64188;SDS011;50493;50.970;10.082;2023-02-18T12:29:43;1.60;;;0.90;;
64188;SDS011;50493;50.970;10.082;2023-02-18T12:32:25;2.17;;;1.10;;
64188;SDS011;50493;50.970;10.082;2023-02-18T12:35:03;3.25;;;1.15;;
64188;SDS011;50493;50.970;10.082;2023-02-18T12:37:45;3.20;;;1.40;;
64188;SDS011;50493;50.970;10.082;2023-02-18T12:43:25;2.50;;;1.20;;
64188;SDS011;50493;50.970;10.082;2023-02-18T12:46:01;2.25;;;1.00;;
64188;SDS011;50493;50.970;10.082;2023-02-18T12:48:48;2.75;;;1.38;;
64188;SDS011;50493;50.970;10.082;2023-02-18T12:51:30;3.15;;;1.10;;
64188;SDS011;50493;50.970;10.082;2023-02-18T12:54:12;2.25;;;1.17;;
64188;SDS011;50493;50.970;10.082;2023-02-18T12:56:52;3.25;;;1.20;;
64188;SDS011;50493;50.970;10.082;2023-02-18T12:59:34;3.17;;;1.65;;
64188;SDS011;50493;50.970;10.082;2023-02-18T13:02:20;5.80;;;1.20;;
64188;SDS011;50493;50.970;10.082;2023-02-18T13:05:04;7.70;;;4.50;;
64188;SDS011;50493;50.970;10.082;2023-02-18T13:07:53;3.00;;;1.40;;
64188;SDS011;50493;50.970;10.082;2023-02-18T13:13:26;3.72;;;1.60;;
64188;SDS011;50493;50.970;10.082;2023-02-18T13:15:57;3.55;;;1.20;;
64188;SDS011;50493;50.970;10.082;2023-02-18T13:18:27;3.08;;;1.20;;
64188;SDS011;50493;50.970;10.082;2023-02-18T13:20:58;3.15;;;1.30;;
64188;SDS011;50493;50.970;10.082;2023-02-18T13:23:28;2.20;;;0.98;;
64188;SDS011;50493;50.970;10.082;2023-02-18T13:25:57;3.75;;;1.30;;
64188;SDS011;50493;50.970;10.082;2023-02-18T13:28:25;2.35;;;1.35;;
64188;SDS011;50493;50.970;10.082;2023-02-18T13:33:56;3.20;;;1.25;;
64188;SDS011;50493;50.970;10.082;2023-02-18T13:36:31;3.33;;;1.38;;
64188;SDS011;50493;50.970;10.082;2023-02-18T13:39:05;3.50;;;1.48;;
64188;SDS011;50493;50.970;10.082;2023-02-18T13:41:37;3.80;;;1.30;;
64188;SDS011;50493;50.970;10.082;2023-02-18T13:44:08;3.35;;;1.60;;
64188;SDS011;50493;50.970;10.082;2023-02-18T13:46:54;4.85;;;2.13;;
64188;SDS011;50493;50.970;10.082;2023-02-18T13:49:22;7.70;;;3.95;;
64188;SDS011;50493;50.970;10.082;2023-02-18T13:51:49;5.57;;;2.40;;
64188;SDS011;50493;50.970;10.082;2023-02-18T13:54:17;5.22;;;1.60;;
64188;SDS011;50493;50.970;10.082;2023-02-18T13:56:50;3.40;;;1.55;;
64188;SDS011;50493;50.970;10.082;2023-02-18T13:59:19;2.35;;;1.17;;
64188;SDS011;50493;50.970;10.082;2023-02-18T14:01:50;3.92;;;1.30;;
64188;SDS011;50493;50.970;10.082;2023-02-18T14:04:35;2.63;;;1.20;;
64188;SDS011;50493;50.970;10.082;2023-02-18T14:09:47;2.28;;;0.90;;
64188;SDS011;50493;50.970;10.082;2023-02-18T14:12:23;3.00;;;1.50;;
64188;SDS011;50493;50.970;10.082;2023-02-18T14:14:51;4.47;;;2.15;;
64188;SDS011;50493;50.970;10.082;2023-02-18T14:23:11;4.10;;;1.90;;
64188;SDS011;50493;50.970;10.082;2023-02-18T14:25:56;5.13;;;2.65;;
64188;SDS011;50493;50.970;10.082;2023-02-18T14:28:38;3.47;;;1.50;;
64188;SDS011;50493;50.970;10.082;2023-02-18T14:31:16;3.72;;;1.50;;
64188;SDS011;50493;50.970;10.082;2023-02-18T14:33:59;5.78;;;1.67;;
64188;SDS011;50493;50.970;10.082;2023-02-18T14:36:48;4.30;;;1.73;;
64188;SDS011;50493;50.970;10.082;2023-02-18T14:39:25;4.63;;;2.10;;
64188;SDS011;50493;50.970;10.082;2023-02-18T14:42:01;4.70;;;2.03;;
64188;SDS011;50493;50.970;10.082;2023-02-18T14:44:35;3.92;;;1.98;;
64188;SDS011;50493;50.970;10.082;2023-02-18T14:47:16;3.03;;;1.30;;
64188;SDS011;50493;50.970;10.082;2023-02-18T14:49:50;3.28;;;1.15;;
64188;SDS011;50493;50.970;10.082;2023-02-18T14:52:21;7.90;;;4.22;;
64188;SDS011;50493;50.970;10.082;2023-02-18T14:54:53;5.45;;;2.25;;
64188;SDS011;50493;50.970;10.082;2023-02-18T14:57:19;6.35;;;1.77;;
64188;SDS011;50493;50.970;10.082;2023-02-18T14:59:57;3.22;;;1.60;;
64188;SDS011;50493;50.970;10.082;2023-02-18T15:02:24;3.75;;;1.45;;
64188;SDS011;50493;50.970;10.082;2023-02-18T15:05:10;4.15;;;2.13;;
64188;SDS011;50493;50.970;10.082;2023-02-18T15:07:37;2.97;;;1.70;;
64188;SDS011;50493;50.970;10.082;2023-02-18T15:10:03;3.70;;;2.08;;
64188;SDS011;50493;50.970;10.082;2023-02-18T15:12:29;3.55;;;1.70;;
64188;SDS011;50493;50.970;10.082;2023-02-18T15:14:54;4.10;;;1.63;;